»·PEaware :: N503AM KWHP-KSBD

N503AM :: KWHP-KSBD

FLIGHT INFORMATION

Flight Status: Arrived
Operator: Privately registered:
United States
More flights under this callsign
Pilot: Gary H. (18965)
Aircraft: CESSNA 172 SKYHAWK
(C172)
More flights by this aircraft type
Origin: KWHP Whiteman
United States
Destination: KSBD San Bernardino Intl
United States
More flights between these airports :: More routes between these airports
Route: +WHITEMAN1 VNY V186 PDZ
File this flight plan on PilotEdge
Remarks:
Altitude:
(Current/Filed)
5,000ft
Speed:
(Current/Filed)
110kts
Departed: 20-Oct-19 06:58 PM
Arrived: 20-Oct-19 07:48 PM
Distance/Time
Traveled:
59nm/0:50
Distance/Time
To Go:
Arrived

Flight Plot

Page will automatically refresh every two minutes.

Flight plan parsing failed; only flown route is shown


Map Options




Map Legend


Flown Route
Filed Route
Departure Airport
Arrival Airport
Navaid (VOR, NDB)
Fix

Horizontal Profiles

Position Reports

Time Latitude Longitude Heading Altitude Ground
Speed
20-Oct-19 18:47 34.260370 -118.413372 319 997ft 0kts
20-Oct-19 18:48 34.260370 -118.413372 319 997ft 0kts
20-Oct-19 18:49 34.260370 -118.413372 319 997ft 0kts
20-Oct-19 18:50 34.260370 -118.413372 319 997ft 0kts
20-Oct-19 18:51 34.260370 -118.413372 319 997ft 0kts
20-Oct-19 18:52 34.260370 -118.413372 319 997ft 0kts
20-Oct-19 18:53 34.259580 -118.413057 144 992ft 14kts
20-Oct-19 18:54 34.256187 -118.409493 136 973ft 13kts
20-Oct-19 18:55 34.255606 -118.408918 150 970ft 0kts
20-Oct-19 18:56 34.255279 -118.409227 310 969ft 6kts
20-Oct-19 18:57 34.268509 -118.424092 306 1379ft 87kts
20-Oct-19 18:58 34.271841 -118.453010 271 2011ft 90kts
20-Oct-19 18:59 34.272583 -118.484163 276 2606ft 94kts
20-Oct-19 19:00 34.277885 -118.512572 342 3109ft 97kts
20-Oct-19 19:01 34.302029 -118.524806 333 3685ft 90kts
20-Oct-19 19:02 34.325375 -118.536176 338 4195ft 92kts
20-Oct-19 19:03 34.348079 -118.549629 299 4658ft 95kts
20-Oct-19 19:04 34.326988 -118.553051 122 4972ft 126kts
20-Oct-19 19:05 34.307346 -118.519718 123 4951ft 118kts
20-Oct-19 19:06 34.288351 -118.487398 123 4957ft 119kts
20-Oct-19 19:07 34.269549 -118.453564 123 4960ft 122kts
20-Oct-19 19:08 34.249983 -118.419934 126 4953ft 119kts
20-Oct-19 19:09 34.231776 -118.387622 129 4944ft 113kts
20-Oct-19 19:10 34.213442 -118.357760 131 4936ft 109kts
20-Oct-19 19:11 34.194611 -118.331114 125 4934ft 103kts
20-Oct-19 19:12 34.176875 -118.303271 125 4939ft 106kts
20-Oct-19 19:13 34.159024 -118.274858 120 4942ft 106kts
20-Oct-19 19:14 34.147785 -118.242175 108 4947ft 106kts
20-Oct-19 19:15 34.136991 -118.208978 108 4950ft 106kts
20-Oct-19 19:16 34.126214 -118.175516 108 4953ft 107kts
20-Oct-19 19:17 34.115526 -118.141944 108 4956ft 107kts
20-Oct-19 19:18 34.105003 -118.108025 106 4960ft 108kts
20-Oct-19 19:19 34.094755 -118.073763 107 4964ft 109kts
20-Oct-19 19:20 34.084046 -118.038509 107 4924ft 112kts
20-Oct-19 19:21 34.073404 -118.003396 107 4927ft 111kts
20-Oct-19 19:22 34.062874 -117.968630 107 4931ft 110kts
20-Oct-19 19:23 34.055953 -117.932983 99 4936ft 109kts
20-Oct-19 19:24 34.049589 -117.897485 98 4941ft 108kts
20-Oct-19 19:25 34.043309 -117.862043 98 4946ft 108kts
20-Oct-19 19:26 34.037132 -117.826731 98 4951ft 107kts
20-Oct-19 19:27 34.034107 -117.809310 98 4953ft 107kts
20-Oct-19 19:28 34.034107 -117.809310 98 4953ft 107kts
20-Oct-19 19:29 34.034107 -117.809310 98 4953ft 107kts
20-Oct-19 19:30 34.029845 -117.784646 98 4957ft 107kts
20-Oct-19 19:31 34.023812 -117.749483 98 4962ft 107kts
20-Oct-19 19:32 34.017837 -117.714407 98 4968ft 107kts
20-Oct-19 19:33 34.011899 -117.679312 97 4973ft 107kts
20-Oct-19 19:34 34.007752 -117.654666 97 4977ft 107kts
20-Oct-19 19:35 34.001626 -117.616916 97 4521ft 121kts
20-Oct-19 19:36 33.999885 -117.576323 79 3929ft 122kts
20-Oct-19 19:37 34.006743 -117.536432 69 3335ft 122kts
20-Oct-19 19:38 34.017116 -117.498570 68 2953ft 108kts
20-Oct-19 19:39 34.026921 -117.466696 65 2951ft 100kts
20-Oct-19 19:40 34.036161 -117.434641 68 3007ft 101kts
20-Oct-19 19:41 34.045348 -117.401428 66 2994ft 109kts
20-Oct-19 19:42 34.057019 -117.367213 61 2989ft 106kts
20-Oct-19 19:43 34.065877 -117.332391 67 2544ft 110kts
20-Oct-19 19:44 34.075135 -117.304162 64 2051ft 78kts
20-Oct-19 19:45 34.082115 -117.278709 70 1624ft 82kts
20-Oct-19 19:46 34.089919 -117.252463 66 1170ft 81kts
20-Oct-19 19:47 34.094134 -117.242055 352 1099ft 0kts
20-Oct-19 19:48 34.094134 -117.242055 352 1099ft 0kts

Navigation Log

Ident Type
Flight plan parsing failed, navigation log unavailable